Time;durP1;ratioP1;P1;durP2;ratioP2;P2;SDS_P1;SDS_P2;PMS_P1;PMS_P2;Temp;Humidity;BMP_temperature;BMP_pressure;BME280_temperature;BME280_humidity;BME280_pressure;Samples;Min_cycle;Max_cycle;Signal;HPM_P1;HPM_P2
2023/08/23 00:01:55;;;;;;;21.33;14.82;;;16.80;91.30;;;;;;5092262;28;20040;-80
2023/08/23 00:04:20;;;;;;;20.98;16.33;;;16.80;91.40;;;;;;5092607;28;20093;-82
2023/08/23 00:06:46;;;;;;;20.90;15.65;;;16.80;91.30;;;;;;5058745;28;20415;-83
2023/08/23 00:09:13;;;;;;;20.27;15.98;;;16.70;91.30;;;;;;5075425;28;20076;-82
2023/08/23 00:11:39;;;;;;;19.90;15.75;;;16.70;91.50;;;;;;5075530;28;20051;-82
2023/08/23 00:14:04;;;;;;;19.88;13.65;;;16.60;91.70;;;;;;5092425;28;20031;-83
2023/08/23 00:16:30;;;;;;;24.45;17.35;;;16.60;91.80;;;;;;5092059;28;20071;-83
2023/08/23 00:18:56;;;;;;;19.20;14.93;;;16.60;91.70;;;;;;5092387;28;20040;-84
2023/08/23 00:21:22;;;;;;;19.67;15.82;;;16.50;91.70;;;;;;5075199;28;20396;-83
2023/08/23 00:23:47;;;;;;;25.52;15.93;;;16.50;91.80;;;;;;5075980;28;20040;-83
2023/08/23 00:26:13;;;;;;;22.92;15.93;;;16.50;92.20;;;;;;5075501;28;20565;-80
2023/08/23 00:28:40;;;;;;;21.98;16.73;;;16.50;92.30;;;;;;5092697;28;20036;-84
2023/08/23 00:31:06;;;;;;;20.83;14.57;;;16.50;92.30;;;;;;5091088;28;20040;-84
2023/08/23 00:33:32;;;;;;;21.33;15.15;;;16.60;92.10;;;;;;5075442;28;20427;-83
2023/08/23 00:35:58;;;;;;;20.55;14.73;;;16.60;92.10;;;;;;5058531;28;20036;-83
2023/08/23 00:38:24;;;;;;;19.48;14.80;;;16.60;92.20;;;;;;5057698;28;20040;-82
2023/08/23 00:40:50;;;;;;;22.02;14.95;;;16.60;92.10;;;;;;5091716;28;20127;-80
2023/08/23 00:43:15;;;;;;;18.92;13.43;;;16.60;92.10;;;;;;5092003;28;20126;-84
2023/08/23 00:45:42;;;;;;;16.45;11.63;;;16.60;92.00;;;;;;5079942;28;20480;-84
2023/08/23 00:48:11;;;;;;;14.15;10.35;;;16.60;91.90;;;;;;5081834;28;20139;-82
2023/08/23 00:50:37;;;;;;;12.70;9.13;;;16.50;91.60;;;;;;5098772;28;20039;-85
2023/08/23 00:53:04;;;;;;;8.82;7.93;;;16.40;91.40;;;;;;5098387;28;20121;-82
2023/08/23 00:55:30;;;;;;;10.63;8.38;;;16.30;91.20;;;;;;5081816;28;20044;-82
2023/08/23 00:57:57;;;;;;;15.48;10.55;;;16.40;91.30;;;;;;5081521;28;20040;-81
2023/08/23 01:00:24;;;;;;;16.67;11.35;;;16.40;91.40;;;;;;5098305;28;20128;-86
2023/08/23 01:02:51;;;;;;;19.00;11.98;;;16.40;91.60;;;;;;5098696;28;20108;-83
2023/08/23 01:05:17;;;;;;;15.00;11.50;;;16.40;91.60;;;;;;5081767;28;20044;-84
2023/08/23 01:07:55;;;;;;;18.17;13.85;;;16.40;91.90;;;;;;5098464;28;20036;-83
2023/08/23 01:10:34;;;;;;;17.90;12.80;;;16.50;92.20;;;;;;5098319;28;20097;-82
2023/08/23 01:13:03;;;;;;;14.80;11.68;;;16.50;92.00;;;;;;5098490;28;20075;-84
2023/08/23 01:15:29;;;;;;;11.07;9.60;;;16.50;92.10;;;;;;5081575;28;20043;-82
2023/08/23 01:17:57;;;;;;;10.27;8.00;;;16.50;92.00;;;;;;5098247;28;20040;-87
2023/08/23 01:20:23;;;;;;;8.52;6.68;;;16.50;91.70;;;;;;5098214;28;20051;-82
2023/08/23 01:22:54;;;;;;;9.43;7.00;;;16.40;91.40;;;;;;5081655;28;20036;-83
2023/08/23 01:25:20;;;;;;;11.00;8.98;;;16.40;91.40;;;;;;5081261;28;20044;-82
2023/08/23 01:27:46;;;;;;;14.45;8.80;;;16.40;91.40;;;;;;5064732;28;20043;-82
2023/08/23 01:30:15;;;;;;;11.90;8.45;;;16.40;91.50;;;;;;5081235;28;20040;-84
2023/08/23 01:32:51;;;;;;;9.73;8.25;;;16.40;91.70;;;;;;5081696;28;20377;-82
2023/08/23 01:35:28;;;;;;;8.93;8.02;;;16.40;91.60;;;;;;5081133;28;20055;-84
2023/08/23 01:37:57;;;;;;;9.77;8.77;;;16.40;91.70;;;;;;5081112;28;20054;-81
2023/08/23 01:40:23;;;;;;;13.02;10.27;;;16.40;91.70;;;;;;5081427;28;20040;-84
2023/08/23 01:42:50;;;;;;;8.95;7.72;;;16.40;91.80;;;;;;5064602;28;20040;-82
2023/08/23 01:45:16;;;;;;;12.82;10.30;;;16.40;91.90;;;;;;5080978;28;20515;-83
2023/08/23 01:47:41;;;;;;;18.77;13.18;;;16.40;92.10;;;;;;5048072;28;20039;-85
2023/08/23 01:50:08;;;;;;;15.32;11.88;;;16.40;92.40;;;;;;5081078;28;20491;-84
2023/08/23 01:52:33;;;;;;;16.05;13.25;;;16.40;92.90;;;;;;5064507;28;20123;-85
2023/08/23 01:54:59;;;;;;;17.42;13.35;;;16.40;92.90;;;;;;5064300;28;20492;-82
2023/08/23 01:57:25;;;;;;;14.93;13.23;;;16.40;92.80;;;;;;5061554;28;20484;-81
2023/08/23 01:59:52;;;;;;;17.88;14.40;;;16.50;92.90;;;;;;5077805;28;20032;-83
2023/08/23 02:02:18;;;;;;;14.68;12.27;;;16.50;93.00;;;;;;5094599;28;20539;-79
2023/08/23 02:04:43;;;;;;;13.80;11.80;;;16.40;92.80;;;;;;5077774;28;20181;-84
2023/08/23 02:07:09;;;;;;;17.67;12.88;;;16.40;92.60;;;;;;5094521;28;20047;-79
2023/08/23 02:09:35;;;;;;;13.88;11.50;;;16.50;92.50;;;;;;5077691;28;20085;-81
2023/08/23 02:12:00;;;;;;;11.43;10.23;;;16.50;92.40;;;;;;5061346;28;20043;-81
2023/08/23 02:14:26;;;;;;;12.95;11.55;;;16.40;92.20;;;;;;5077437;28;20123;-82
2023/08/23 02:16:52;;;;;;;13.77;12.05;;;16.40;92.10;;;;;;5094184;28;20048;-82
2023/08/23 02:19:18;;;;;;;15.35;12.90;;;16.40;92.10;;;;;;5094401;28;20093;-83
2023/08/23 02:21:43;;;;;;;15.77;12.93;;;16.20;92.40;;;;;;5077397;28;20058;-81
2023/08/23 02:24:09;;;;;;;16.65;12.85;;;16.30;92.40;;;;;;5060521;28;20043;-80
2023/08/23 02:26:37;;;;;;;18.65;14.15;;;16.30;92.40;;;;;;5094297;28;20116;-80
2023/08/23 02:29:03;;;;;;;16.80;12.52;;;16.30;92.40;;;;;;5094401;28;20044;-82
2023/08/23 02:31:30;;;;;;;23.60;16.35;;;16.30;92.30;;;;;;5077513;28;20388;-84
2023/08/23 02:33:55;;;;;;;22.20;16.33;;;16.40;92.50;;;;;;5094009;28;20040;-80
2023/08/23 02:36:21;;;;;;;21.17;15.63;;;16.50;92.60;;;;;;5077053;28;20097;-79
2023/08/23 02:38:47;;;;;;;22.15;16.27;;;16.50;92.60;;;;;;5077407;28;20066;-83
2023/08/23 02:41:12;;;;;;;21.60;16.10;;;16.50;92.70;;;;;;5093975;28;20503;-83
2023/08/23 02:43:38;;;;;;;22.75;17.45;;;16.50;92.70;;;;;;5094166;28;20126;-82
2023/08/23 02:46:04;;;;;;;21.58;16.45;;;16.50;92.90;;;;;;5060501;28;20505;-82
2023/08/23 02:48:30;;;;;;;20.88;16.88;;;16.60;93.00;;;;;;5093766;28;20032;-84
2023/08/23 02:50:56;;;;;;;21.98;16.95;;;16.60;93.00;;;;;;5060529;28;20032;-81
2023/08/23 02:53:21;;;;;;;22.23;16.05;;;16.60;93.00;;;;;;5093406;28;20052;-83
2023/08/23 02:55:47;;;;;;;20.60;16.75;;;16.70;92.90;;;;;;5093708;28;20337;-80
2023/08/23 02:58:13;;;;;;;22.30;15.95;;;16.70;92.90;;;;;;5077156;28;20039;-83
2023/08/23 03:00:39;;;;;;;20.67;16.42;;;16.70;92.90;;;;;;5076706;28;20484;-81
2023/08/23 03:03:04;;;;;;;20.33;16.63;;;16.70;92.80;;;;;;5076810;28;20116;-81
2023/08/23 03:05:31;;;;;;;22.23;16.48;;;16.70;92.80;;;;;;5076622;28;20043;-82
2023/08/23 03:07:56;;;;;;;20.85;16.80;;;16.70;92.80;;;;;;5092845;28;20036;-80
2023/08/23 03:10:22;;;;;;;21.45;15.48;;;16.70;92.90;;;;;;5076534;28;20043;-82
2023/08/23 03:12:48;;;;;;;23.92;17.58;;;16.70;92.90;;;;;;5059833;28;20043;-83
2023/08/23 03:15:14;;;;;;;21.75;16.98;;;16.70;93.00;;;;;;5059618;28;20036;-80
2023/08/23 03:17:39;;;;;;;31.88;19.92;;;16.80;92.90;;;;;;5076342;28;20036;-85
2023/08/23 03:20:06;;;;;;;24.33;18.30;;;16.80;93.10;;;;;;5076365;28;20044;-83
2023/08/23 03:22:31;;;;;;;20.10;16.70;;;16.80;93.10;;;;;;5076213;28;20036;-82
2023/08/23 03:24:57;;;;;;;25.50;18.10;;;16.80;93.20;;;;;;5093266;28;20042;-83
2023/08/23 03:27:24;;;;;;;27.55;19.40;;;16.80;93.60;;;;;;5076220;28;20510;-82
2023/08/23 03:29:50;;;;;;;25.80;18.17;;;16.90;94.00;;;;;;5076026;28;20040;-82
2023/08/23 03:32:16;;;;;;;24.30;18.92;;;16.80;93.50;;;;;;5059483;28;20042;-82
2023/08/23 03:34:42;;;;;;;26.38;20.27;;;16.90;93.80;;;;;;5092926;28;20127;-84
2023/08/23 03:37:08;;;;;;;29.55;19.88;;;16.90;94.30;;;;;;5075974;28;20115;-80
2023/08/23 03:39:34;;;;;;;27.83;18.55;;;16.90;94.10;;;;;;5076160;28;20105;-85
2023/08/23 03:41:59;;;;;;;29.42;19.58;;;16.90;93.90;;;;;;5059341;28;20539;-84
2023/08/23 03:44:25;;;;;;;23.80;16.25;;;16.90;94.20;;;;;;5076186;28;20046;-81
2023/08/23 03:46:51;;;;;;;29.02;18.63;;;16.90;94.00;;;;;;5059363;28;20382;-83
2023/08/23 03:49:16;;;;;;;23.65;17.98;;;16.90;94.10;;;;;;5076095;28;20105;-83
2023/08/23 03:51:42;;;;;;;29.75;20.25;;;16.90;93.80;;;;;;5064955;28;20122;-83
2023/08/23 03:54:08;;;;;;;22.58;17.50;;;17.00;94.00;;;;;;5092442;28;20052;-83
2023/08/23 03:56:34;;;;;;;25.35;19.45;;;16.90;93.80;;;;;;5059166;28;20062;-84
2023/08/23 03:58:59;;;;;;;26.63;20.45;;;17.00;93.70;;;;;;5075873;28;20052;-82
2023/08/23 04:01:25;;;;;;;28.05;19.92;;;17.00;93.90;;;;;;5092973;28;20072;-83
2023/08/23 04:03:51;;;;;;;27.70;20.15;;;16.90;93.90;;;;;;5075718;28;20028;-86
2023/08/23 04:06:16;;;;;;;25.45;19.42;;;17.00;93.90;;;;;;5092924;28;20083;-81
2023/08/23 04:08:42;;;;;;;27.17;18.85;;;16.90;93.80;;;;;;5092941;28;20470;-85
2023/08/23 04:11:08;;;;;;;23.17;18.00;;;16.90;93.90;;;;;;5061032;28;20071;-80
2023/08/23 04:13:34;;;;;;;23.45;19.33;;;16.90;93.80;;;;;;5101125;28;20024;-80
2023/08/23 04:15:59;;;;;;;29.50;20.95;;;16.90;93.80;;;;;;5101783;28;20048;-86
2023/08/23 04:18:25;;;;;;;27.98;20.77;;;16.90;93.70;;;;;;5101784;28;20031;-82
2023/08/23 04:20:59;;;;;;;26.65;19.80;;;16.90;93.60;;;;;;5117397;28;20485;-81
2023/08/23 04:23:25;;;;;;;32.15;21.35;;;16.90;93.60;;;;;;5083781;28;20051;-81
2023/08/23 04:25:51;;;;;;;30.48;20.90;;;16.90;93.60;;;;;;5100879;28;20059;-81
2023/08/23 04:28:16;;;;;;;24.20;19.08;;;16.90;93.60;;;;;;5117852;28;20095;-84
2023/08/23 04:30:42;;;;;;;26.88;18.80;;;16.90;93.60;;;;;;5100868;28;20101;-81
2023/08/23 04:33:09;;;;;;;25.30;20.23;;;16.80;93.70;;;;;;5117539;28;20036;-79
2023/08/23 04:35:36;;;;;;;26.55;19.38;;;16.80;93.70;;;;;;5117099;28;20166;-79
2023/08/23 04:38:01;;;;;;;22.75;18.08;;;16.80;93.70;;;;;;5116706;28;20091;-80
2023/08/23 04:40:28;;;;;;;23.65;17.40;;;16.80;93.70;;;;;;5113233;28;20408;-81
2023/08/23 04:42:53;;;;;;;23.02;17.80;;;16.80;93.70;;;;;;5066226;28;20036;-78
2023/08/23 04:45:20;;;;;;;23.83;18.48;;;16.70;93.60;;;;;;5096262;28;20059;-81
2023/08/23 04:47:45;;;;;;;21.13;17.35;;;16.80;93.50;;;;;;5098773;28;20123;-77
2023/08/23 04:50:11;;;;;;;20.27;15.77;;;16.70;93.40;;;;;;5062869;28;20071;-78
2023/08/23 04:52:37;;;;;;;16.60;14.65;;;16.70;93.40;;;;;;5103091;28;20036;-79
2023/08/23 04:55:04;;;;;;;21.17;15.50;;;16.60;93.30;;;;;;5078068;28;20066;-79
2023/08/23 04:57:30;;;;;;;20.23;16.17;;;16.60;93.30;;;;;;5079694;28;20044;-80
2023/08/23 04:59:57;;;;;;;19.83;16.33;;;16.50;93.30;;;;;;5094010;28;20503;-77
2023/08/23 05:02:22;;;;;;;23.98;17.33;;;16.50;93.40;;;;;;5096036;28;20044;-79
2023/08/23 05:04:48;;;;;;;22.92;17.17;;;16.50;93.30;;;;;;5075074;28;20067;-79
2023/08/23 05:07:14;;;;;;;18.65;15.18;;;16.50;93.40;;;;;;5074869;28;20400;-79
2023/08/23 05:09:39;;;;;;;22.83;17.83;;;16.40;93.40;;;;;;5091795;28;20043;-79
2023/08/23 05:12:05;;;;;;;24.83;19.77;;;16.40;93.60;;;;;;5074699;28;20506;-80
2023/08/23 05:14:31;;;;;;;30.75;21.02;;;16.40;94.00;;;;;;5058063;28;20036;-78
2023/08/23 05:16:57;;;;;;;29.52;21.00;;;16.30;94.00;;;;;;5074659;28;20135;-78
2023/08/23 05:19:22;;;;;;;32.53;21.73;;;16.30;93.90;;;;;;5091479;28;20400;-81
2023/08/23 05:21:49;;;;;;;23.17;17.77;;;16.30;93.90;;;;;;5091612;28;20040;-78
2023/08/23 05:24:15;;;;;;;24.70;19.63;;;16.30;94.00;;;;;;5091352;28;20048;-78
2023/08/23 05:26:40;;;;;;;25.58;20.08;;;16.20;94.00;;;;;;5074911;28;20036;-79
2023/08/23 05:29:06;;;;;;;23.52;18.88;;;16.30;94.10;;;;;;5074482;28;20040;-79
2023/08/23 05:31:32;;;;;;;28.52;18.95;;;16.30;94.10;;;;;;5077190;28;20040;-79
2023/08/23 05:33:58;;;;;;;27.95;20.27;;;16.40;94.10;;;;;;5095132;28;20404;-80
2023/08/23 05:36:23;;;;;;;26.60;21.00;;;16.30;94.20;;;;;;5095092;28;20048;-79
2023/08/23 05:38:50;;;;;;;26.95;19.75;;;16.30;94.10;;;;;;5095034;28;20043;-80
2023/08/23 05:41:16;;;;;;;21.58;17.00;;;16.40;94.20;;;;;;5095019;28;20036;-80
2023/08/23 05:43:42;;;;;;;25.83;20.35;;;16.40;94.00;;;;;;5094953;28;20092;-79
2023/08/23 05:46:08;;;;;;;22.63;18.77;;;16.50;94.00;;;;;;5078021;28;20040;-80
2023/08/23 05:48:35;;;;;;;26.38;21.27;;;16.50;94.30;;;;;;5061589;28;20040;-82
2023/08/23 05:51:04;;;;;;;30.85;21.17;;;16.50;94.50;;;;;;5077731;28;20119;-84
2023/08/23 05:53:30;;;;;;;25.98;20.63;;;16.50;94.60;;;;;;5078449;28;20043;-78
2023/08/23 05:55:56;;;;;;;27.38;21.63;;;16.50;94.70;;;;;;5061756;28;20091;-80
2023/08/23 05:58:22;;;;;;;26.13;20.67;;;16.50;94.60;;;;;;5095703;28;20449;-81
2023/08/23 06:00:48;;;;;;;25.08;20.00;;;16.50;94.40;;;;;;5095297;28;20040;-80
2023/08/23 06:03:14;;;;;;;25.55;20.13;;;16.60;94.40;;;;;;5095363;28;20036;-81
2023/08/23 06:05:41;;;;;;;31.25;22.60;;;16.60;94.30;;;;;;5095085;28;20035;-80
2023/08/23 06:08:08;;;;;;;32.13;23.17;;;16.80;94.60;;;;;;5094703;28;20083;-82
2023/08/23 06:10:34;;;;;;;30.85;22.90;;;16.80;94.60;;;;;;5095304;28;20052;-81
2023/08/23 06:12:59;;;;;;;32.53;23.55;;;16.80;94.90;;;;;;5061841;28;20544;-83
2023/08/23 06:15:25;;;;;;;31.75;23.33;;;16.90;94.80;;;;;;5095288;28;20451;-79
2023/08/23 06:17:53;;;;;;;32.90;23.55;;;16.90;94.90;;;;;;5078199;28;20040;-81
2023/08/23 06:20:19;;;;;;;28.15;20.83;;;17.00;94.90;;;;;;5094757;28;20044;-80
2023/08/23 06:22:45;;;;;;;27.83;23.33;;;17.10;94.80;;;;;;5077714;28;20557;-80
2023/08/23 06:25:11;;;;;;;31.85;23.73;;;17.20;95.00;;;;;;5094417;28;20044;-81
2023/08/23 06:27:37;;;;;;;28.73;23.08;;;17.20;94.90;;;;;;5093789;28;20039;-81
2023/08/23 06:30:06;;;;;;;28.08;21.48;;;17.30;94.80;;;;;;5077047;28;20078;-81
2023/08/23 06:32:32;;;;;;;33.97;25.17;;;17.40;94.60;;;;;;5093641;28;20072;-83
2023/08/23 06:34:58;;;;;;;33.10;24.50;;;17.40;94.50;;;;;;5077503;28;20075;-84
2023/08/23 06:37:23;;;;;;;29.98;24.52;;;17.50;94.40;;;;;;5076881;28;20028;-81
2023/08/23 06:39:50;;;;;;;30.33;24.05;;;17.60;94.80;;;;;;5060269;28;20075;-82
2023/08/23 06:42:17;;;;;;;36.90;25.42;;;17.70;94.80;;;;;;5093412;28;20032;-82
2023/08/23 06:44:44;;;;;;;33.53;23.77;;;17.70;95.00;;;;;;5076997;28;20036;-82
2023/08/23 06:47:10;;;;;;;30.60;23.13;;;17.80;94.90;;;;;;5077407;28;20044;-82
2023/08/23 06:49:35;;;;;;;30.48;24.63;;;17.80;94.70;;;;;;5094630;28;20036;-81
2023/08/23 06:52:01;;;;;;;31.65;24.38;;;17.90;94.90;;;;;;5094219;28;20189;-83
2023/08/23 06:54:27;;;;;;;26.48;22.25;;;17.90;94.80;;;;;;5077151;28;20060;-82
2023/08/23 06:56:53;;;;;;;30.60;24.33;;;18.00;94.80;;;;;;5061006;28;20040;-80
2023/08/23 06:59:18;;;;;;;28.45;22.60;;;18.10;94.90;;;;;;5061354;28;20376;-80
2023/08/23 07:01:45;;;;;;;28.73;23.30;;;18.20;94.60;;;;;;5060740;28;20071;-80
2023/08/23 07:04:11;;;;;;;34.53;23.30;;;18.40;94.70;;;;;;5077130;28;20042;-80
2023/08/23 07:06:37;;;;;;;28.75;21.92;;;18.50;94.70;;;;;;5077372;28;20131;-82
2023/08/23 07:09:03;;;;;;;27.35;20.40;;;18.60;94.60;;;;;;5093735;28;20403;-82
2023/08/23 07:11:29;;;;;;;25.13;20.00;;;18.70;94.50;;;;;;5093715;28;20120;-79
2023/08/23 07:13:55;;;;;;;25.88;21.52;;;18.90;94.40;;;;;;5093411;28;20127;-80
2023/08/23 07:16:21;;;;;;;31.23;22.05;;;19.10;94.30;;;;;;5076688;28;20109;-83
2023/08/23 07:18:46;;;;;;;27.73;21.42;;;19.20;94.20;;;;;;5076778;28;20035;-80
2023/08/23 07:21:12;;;;;;;27.10;19.77;;;19.30;94.00;;;;;;5093480;28;20040;-83
2023/08/23 07:23:38;;;;;;;27.00;20.38;;;19.40;93.90;;;;;;5059915;28;20040;-81
2023/08/23 07:26:04;;;;;;;26.13;18.88;;;19.40;93.80;;;;;;5076964;28;20071;-81
2023/08/23 07:28:30;;;;;;;22.30;17.70;;;19.50;93.60;;;;;;5093668;28;20040;-79
2023/08/23 07:30:58;;;;;;;26.20;18.42;;;19.60;93.40;;;;;;5093387;28;20044;-83
2023/08/23 07:33:25;;;;;;;24.75;18.27;;;19.60;92.80;;;;;;5076833;28;20036;-80
2023/08/23 07:35:59;;;;;;;25.73;17.60;;;19.70;92.80;;;;;;5076247;28;20105;-82
2023/08/23 07:38:26;;;;;;;20.08;14.50;;;19.80;92.30;;;;;;5076106;28;20104;-81
2023/08/23 07:40:57;;;;;;;20.00;15.18;;;19.90;92.10;;;;;;5075911;28;20071;-79
2023/08/23 07:43:23;;;;;;;24.00;15.90;;;19.90;91.80;;;;;;5092566;28;20083;-82
2023/08/23 07:45:54;;;;;;;20.63;15.55;;;20.00;91.50;;;;;;5092545;28;20039;-80
2023/08/23 07:48:20;;;;;;;21.10;14.45;;;20.10;91.20;;;;;;5075926;28;20040;-81
2023/08/23 07:50:49;;;;;;;26.48;15.10;;;20.20;90.40;;;;;;5092878;28;20036;-80
2023/08/23 07:53:16;;;;;;;23.85;17.13;;;20.30;90.40;;;;;;5059048;28;20078;-81
2023/08/23 07:55:41;;;;;;;25.10;15.05;;;20.50;90.30;;;;;;5075891;28;20439;-81
2023/08/23 07:58:07;;;;;;;21.02;13.35;;;20.60;89.60;;;;;;5059117;28;20193;-83
2023/08/23 08:00:33;;;;;;;19.60;12.48;;;20.60;88.50;;;;;;5092837;28;20043;-82
2023/08/23 08:02:59;;;;;;;17.45;12.30;;;20.60;88.10;;;;;;5075573;28;20039;-81
2023/08/23 08:05:24;;;;;;;21.98;12.80;;;20.70;87.70;;;;;;5075628;28;20043;-82
2023/08/23 08:07:50;;;;;;;17.88;11.98;;;20.80;87.40;;;;;;5059140;28;20048;-83
2023/08/23 08:10:16;;;;;;;19.42;12.35;;;20.90;87.50;;;;;;5076338;28;20083;-80
2023/08/23 08:12:41;;;;;;;17.02;13.45;;;21.00;86.90;;;;;;5092635;28;20044;-80
2023/08/23 08:15:09;;;;;;;17.80;12.18;;;21.10;86.70;;;;;;5059691;28;20044;-81
2023/08/23 08:17:35;;;;;;;16.83;12.10;;;21.20;86.40;;;;;;5092826;28;20048;-80
2023/08/23 08:20:05;;;;;;;19.95;13.70;;;21.30;86.10;;;;;;5075713;28;20040;-80
2023/08/23 08:22:31;;;;;;;17.60;13.07;;;21.40;85.70;;;;;;5075942;28;20101;-80
2023/08/23 08:24:57;;;;;;;16.90;12.82;;;21.30;84.60;;;;;;5092452;28;20042;-78
2023/08/23 08:27:23;;;;;;;20.38;12.32;;;21.40;85.20;;;;;;5092730;28;20130;-77
2023/08/23 08:29:49;;;;;;;18.55;13.48;;;21.50;84.90;;;;;;5075480;28;20127;-77
2023/08/23 08:32:15;;;;;;;18.50;12.73;;;21.50;84.20;;;;;;5092660;28;20043;-80
2023/08/23 08:34:40;;;;;;;14.07;9.73;;;21.60;84.60;;;;;;5076014;28;20048;-78
2023/08/23 08:37:06;;;;;;;13.05;9.55;;;21.60;83.80;;;;;;5075607;28;20492;-78
2023/08/23 08:39:32;;;;;;;15.23;11.57;;;21.60;83.30;;;;;;5092727;28;20098;-82
2023/08/23 08:41:59;;;;;;;19.60;13.15;;;21.70;82.90;;;;;;5075641;28;20036;-80
2023/08/23 08:44:26;;;;;;;14.82;11.75;;;21.70;83.50;;;;;;5092353;28;20036;-81
2023/08/23 08:47:07;;;;;;;15.82;11.40;;;21.70;83.70;;;;;;5075537;28;20043;-79
2023/08/23 08:49:32;;;;;;;12.20;10.10;;;21.70;83.00;;;;;;5075719;28;20040;-82
2023/08/23 08:52:01;;;;;;;13.98;10.45;;;21.80;82.80;;;;;;5044811;28;20043;-82
2023/08/23 08:54:32;;;;;;;14.95;11.10;;;21.90;82.10;;;;;;5092211;28;20059;-78
2023/08/23 08:56:59;;;;;;;14.77;12.20;;;21.90;82.30;;;;;;5092531;28;20455;-79
2023/08/23 08:59:25;;;;;;;14.98;9.65;;;22.00;82.30;;;;;;5092037;28;20040;-79
2023/08/23 09:01:54;;;;;;;13.82;9.10;;;22.00;81.50;;;;;;5091619;28;20044;-79
2023/08/23 09:04:20;;;;;;;15.18;9.27;;;22.10;81.70;;;;;;5076061;28;20040;-79
2023/08/23 09:06:47;;;;;;;11.75;7.68;;;22.40;81.20;;;;;;5078645;28;20035;-81
2023/08/23 09:09:12;;;;;;;12.45;8.65;;;22.40;79.20;;;;;;5079050;28;20040;-80
2023/08/23 09:11:39;;;;;;;14.02;8.95;;;22.50;79.30;;;;;;5095653;28;20101;-77
2023/08/23 09:14:15;;;;;;;8.68;7.78;;;22.50;78.90;;;;;;5078676;28;20122;-81
2023/08/23 09:16:41;;;;;;;13.32;8.00;;;22.50;78.40;;;;;;5095847;28;20480;-79
2023/08/23 09:19:13;;;;;;;6.80;5.10;;;22.60;78.60;;;;;;5095585;28;20043;-79
2023/08/23 09:21:49;;;;;;;7.78;5.32;;;22.70;76.80;;;;;;5095545;28;20575;-80
2023/08/23 09:24:16;;;;;;;10.27;4.68;;;22.70;76.00;;;;;;5095829;28;20032;-80
2023/08/23 09:26:43;;;;;;;10.70;5.80;;;22.70;75.80;;;;;;5078595;28;20040;-80
2023/08/23 09:29:09;;;;;;;11.77;5.13;;;22.80;75.70;;;;;;5095396;28;20079;-81
2023/08/23 09:31:35;;;;;;;9.88;6.32;;;22.90;75.70;;;;;;5078650;28;20097;-79
2023/08/23 09:34:01;;;;;;;7.32;4.43;;;23.00;75.40;;;;;;5078683;28;20460;-81
2023/08/23 09:36:39;;;;;;;8.13;4.00;;;23.00;75.10;;;;;;5078301;28;20048;-82
2023/08/23 09:39:09;;;;;;;8.38;6.65;;;23.10;73.90;;;;;;5063056;28;20036;-80
2023/08/23 09:41:39;;;;;;;8.40;6.03;;;23.10;74.00;;;;;;5078457;28;20396;-79
2023/08/23 09:44:06;;;;;;;10.40;6.45;;;22.90;74.20;;;;;;5078231;28;20036;-79
2023/08/23 09:46:35;;;;;;;6.50;5.00;;;23.00;74.40;;;;;;5095084;28;20044;-80
2023/08/23 09:49:05;;;;;;;9.18;5.95;;;23.20;74.50;;;;;;5094909;28;20048;-80
2023/08/23 09:51:39;;;;;;;8.88;5.60;;;23.20;73.70;;;;;;5077944;28;20051;-82
2023/08/23 09:54:12;;;;;;;9.90;6.60;;;23.20;73.40;;;;;;5094064;28;20040;-80
2023/08/23 09:56:41;;;;;;;7.93;5.63;;;23.20;72.00;;;;;;5093377;28;20048;-80
2023/08/23 09:59:08;;;;;;;14.02;6.05;;;23.30;72.90;;;;;;5077868;28;20412;-82
2023/08/23 10:01:33;;;;;;;10.50;4.97;;;23.40;73.10;;;;;;5078184;28;20461;-83
2023/08/23 10:03:59;;;;;;;7.93;5.38;;;23.40;71.80;;;;;;5061299;28;20109;-81
2023/08/23 10:06:26;;;;;;;8.02;5.13;;;23.20;72.10;;;;;;5044586;28;20039;-81
2023/08/23 10:08:54;;;;;;;8.88;4.55;;;23.10;72.60;;;;;;5094762;28;20131;-80
2023/08/23 10:11:21;;;;;;;8.98;5.57;;;23.00;72.90;;;;;;5094858;28;20411;-83
2023/08/23 10:13:47;;;;;;;7.55;5.68;;;22.90;73.10;;;;;;5061182;28;20093;-79
2023/08/23 10:16:14;;;;;;;9.27;6.32;;;22.90;73.50;;;;;;5094835;28;20122;-82
2023/08/23 10:18:42;;;;;;;8.40;5.10;;;23.00;73.80;;;;;;5076702;28;20040;-82
2023/08/23 10:21:07;;;;;;;8.15;4.40;;;23.30;73.60;;;;;;5083863;28;20115;-82
2023/08/23 10:23:36;;;;;;;5.60;4.78;;;23.40;71.80;;;;;;5088825;28;20496;-82
2023/08/23 10:26:02;;;;;;;12.95;5.95;;;23.60;71.20;;;;;;5091305;28;20118;-82
2023/08/23 10:28:28;;;;;;;7.72;4.30;;;23.90;70.40;;;;;;5088108;28;20044;-80
2023/08/23 10:30:57;;;;;;;5.95;3.17;;;24.00;69.60;;;;;;5093319;28;20113;-80
2023/08/23 10:33:23;;;;;;;6.13;2.95;;;24.20;69.10;;;;;;5094215;28;20094;-79
2023/08/23 10:35:49;;;;;;;8.27;4.35;;;24.40;68.80;;;;;;5077566;28;20436;-81
2023/08/23 10:38:15;;;;;;;6.50;2.75;;;24.50;68.90;;;;;;5094529;28;20097;-81
2023/08/23 10:40:45;;;;;;;6.68;3.20;;;24.60;65.70;;;;;;5094573;28;20071;-82
2023/08/23 10:43:18;;;;;;;10.50;4.22;;;24.70;65.60;;;;;;5094488;28;20071;-83
2023/08/23 10:46:01;;;;;;;7.38;3.60;;;24.70;65.70;;;;;;5094628;28;20084;-81
2023/08/23 10:48:27;;;;;;;5.63;2.75;;;24.70;64.60;;;;;;5078961;28;20043;-79
2023/08/23 10:50:54;;;;;;;5.85;3.05;;;24.80;64.70;;;;;;5077947;28;20449;-78
2023/08/23 10:53:20;;;;;;;7.35;3.63;;;25.00;64.70;;;;;;5094391;28;20127;-77
2023/08/23 10:55:46;;;;;;;6.10;3.90;;;25.00;63.80;;;;;;5078918;28;20064;-81
2023/08/23 10:58:13;;;;;;;7.10;4.35;;;24.90;64.20;;;;;;5077966;28;20044;-80
2023/08/23 11:00:44;;;;;;;6.88;4.28;;;24.60;65.10;;;;;;5077286;28;20040;-81
2023/08/23 11:03:13;;;;;;;7.45;4.47;;;24.40;66.30;;;;;;5094497;28;20141;-82
2023/08/23 11:05:39;;;;;;;8.82;5.30;;;24.20;67.40;;;;;;5077657;28;20460;-83
2023/08/23 11:08:06;;;;;;;9.95;4.72;;;24.30;67.80;;;;;;5094349;28;20076;-80
2023/08/23 11:10:31;;;;;;;8.85;3.58;;;24.40;67.70;;;;;;5093907;28;20044;-83
2023/08/23 11:12:57;;;;;;;8.40;3.88;;;24.60;65.90;;;;;;5060592;28;20130;-81
2023/08/23 11:15:24;;;;;;;8.35;4.60;;;24.80;65.50;;;;;;5093872;28;20048;-78
2023/08/23 11:17:50;;;;;;;5.65;3.40;;;24.90;64.60;;;;;;5081973;28;20056;-81
2023/08/23 11:20:17;;;;;;;9.95;3.85;;;25.00;64.90;;;;;;5068346;28;20044;-83
2023/08/23 11:22:43;;;;;;;6.25;3.60;;;25.10;63.40;;;;;;5067077;28;20554;-82
2023/08/23 11:25:09;;;;;;;3.72;3.08;;;25.20;63.60;;;;;;5073209;28;20036;-80
2023/08/23 11:27:34;;;;;;;5.65;3.50;;;25.40;62.90;;;;;;5078621;28;20036;-81
2023/08/23 11:30:01;;;;;;;4.53;2.92;;;25.40;60.90;;;;;;5094284;28;20040;-81
2023/08/23 11:32:27;;;;;;;9.48;3.78;;;25.40;60.50;;;;;;5080654;28;20056;-80
2023/08/23 11:34:57;;;;;;;5.72;2.33;;;25.50;61.20;;;;;;5087170;28;20046;-78
2023/08/23 11:37:23;;;;;;;5.13;1.58;;;25.70;59.60;;;;;;5090385;28;20104;-80
2023/08/23 11:39:59;;;;;;;5.32;2.70;;;25.50;57.60;;;;;;5097938;28;20047;-78
2023/08/23 11:42:26;;;;;;;7.20;2.53;;;25.70;58.20;;;;;;5077645;28;20039;-76
2023/08/23 11:44:55;;;;;;;4.20;2.35;;;25.80;58.90;;;;;;5112404;28;20135;-76
2023/08/23 11:47:27;;;;;;;6.32;3.00;;;25.90;59.00;;;;;;5094882;28;20039;-78
2023/08/23 11:49:53;;;;;;;5.30;2.80;;;26.10;58.30;;;;;;5111326;28;20043;-77
2023/08/23 11:52:19;;;;;;;5.82;2.63;;;26.20;58.30;;;;;;5110891;28;20103;-78
2023/08/23 11:54:45;;;;;;;5.55;2.53;;;26.30;58.80;;;;;;5112453;28;20066;-78
2023/08/23 11:57:17;;;;;;;9.00;3.45;;;26.30;58.70;;;;;;5109315;28;20120;-79
2023/08/23 11:59:44;;;;;;;7.32;3.13;;;26.00;58.80;;;;;;5088164;28;20097;-80
2023/08/23 12:02:10;;;;;;;6.50;3.65;;;25.90;59.00;;;;;;5076384;28;20119;-78
2023/08/23 12:04:43;;;;;;;4.30;2.80;;;25.60;60.10;;;;;;5095479;28;20047;-80
2023/08/23 12:07:09;;;;;;;7.13;2.65;;;25.60;60.50;;;;;;5092889;28;20422;-82
2023/08/23 12:09:35;;;;;;;5.15;1.95;;;25.70;59.80;;;;;;5092300;28;20054;-81
2023/08/23 12:12:02;;;;;;;3.70;1.65;;;25.60;59.30;;;;;;5075739;28;20492;-81
2023/08/23 12:14:28;;;;;;;5.00;2.08;;;25.80;59.10;;;;;;5093402;28;20514;-82
2023/08/23 12:16:57;;;;;;;6.90;2.10;;;26.10;58.80;;;;;;5059227;28;20132;-82
2023/08/23 12:19:23;;;;;;;6.60;1.88;;;26.40;58.10;;;;;;5075627;28;20361;-83
2023/08/23 12:21:49;;;;;;;5.25;1.88;;;26.40;57.40;;;;;;5075428;28;20097;-81
2023/08/23 12:24:16;;;;;;;4.15;2.95;;;26.30;57.20;;;;;;5092123;28;20036;-83
2023/08/23 12:26:42;;;;;;;6.85;2.70;;;26.20;57.00;;;;;;5092132;28;20043;-82
2023/08/23 12:29:07;;;;;;;5.05;2.53;;;26.00;57.80;;;;;;5075537;28;20050;-84
2023/08/23 12:31:33;;;;;;;3.90;2.42;;;26.00;58.70;;;;;;5075302;28;20130;-83